createdAt,value
2023-02-24T00:02:20.104Z,20.67
2023-02-24T00:04:51.846Z,19.98
2023-02-24T00:07:20.320Z,24.27
2023-02-24T00:09:49.483Z,22.02
2023-02-24T00:12:18.754Z,21.80
2023-02-24T00:14:46.733Z,21.02
2023-02-24T00:17:15.386Z,20.63
2023-02-24T00:19:43.231Z,19.80
2023-02-24T00:22:11.491Z,19.63
2023-02-24T00:24:39.756Z,21.35
2023-02-24T00:27:11.595Z,21.75
2023-02-24T00:29:40.529Z,21.05
2023-02-24T00:32:12.649Z,21.50
2023-02-24T00:34:43.116Z,20.50
2023-02-24T00:37:12.012Z,20.90
2023-02-24T00:39:41.828Z,21.58
2023-02-24T00:42:12.715Z,21.63
2023-02-24T00:44:45.372Z,23.10
2023-02-24T00:47:16.283Z,21.13
2023-02-24T00:49:44.868Z,20.95
2023-02-24T00:52:15.030Z,19.05
2023-02-24T00:54:45.828Z,18.45
2023-02-24T00:57:16.144Z,21.27
2023-02-24T00:59:47.391Z,17.23
2023-02-24T01:02:16.177Z,19.95
2023-02-24T01:04:46.156Z,21.83
2023-02-24T01:07:14.928Z,20.58
2023-02-24T01:09:44.308Z,23.50
2023-02-24T01:12:39.148Z,22.52
2023-02-24T01:15:09.393Z,21.23
2023-02-24T01:17:38.131Z,21.55
2023-02-24T01:20:16.170Z,21.05
2023-02-24T01:22:44.866Z,20.20
2023-02-24T01:25:13.162Z,22.15
2023-02-24T01:27:43.151Z,19.80
2023-02-24T01:30:15.814Z,19.98
2023-02-24T01:32:44.642Z,19.27
2023-02-24T01:35:14.484Z,20.50
2023-02-24T01:37:43.129Z,19.58
2023-02-24T01:40:20.695Z,19.58
2023-02-24T01:42:50.568Z,18.17
2023-02-24T01:45:25.218Z,20.00
2023-02-24T01:47:54.740Z,18.90
2023-02-24T01:50:25.918Z,19.73
2023-02-24T01:52:58.249Z,20.80
2023-02-24T01:55:31.800Z,17.52
2023-02-24T01:58:04.663Z,16.60
2023-02-24T02:00:38.150Z,20.13
2023-02-24T02:03:15.358Z,20.20
2023-02-24T02:05:45.181Z,20.23
2023-02-24T02:08:14.551Z,20.30
2023-02-24T02:10:44.366Z,17.85
2023-02-24T02:13:20.424Z,16.63
2023-02-24T02:16:02.800Z,16.90
2023-02-24T02:18:42.915Z,15.30
2023-02-24T02:21:59.522Z,19.75
2023-02-24T02:24:43.925Z,17.02
2023-02-24T02:27:34.994Z,17.17
2023-02-24T02:30:43.947Z,19.90
2023-02-24T02:33:49.838Z,16.92
2023-02-24T02:36:23.836Z,17.77
2023-02-24T02:38:57.435Z,18.25
2023-02-24T02:44:08.422Z,16.70
2023-02-24T02:46:43.445Z,17.85
2023-02-24T02:49:20.648Z,18.63
2023-02-24T02:51:52.674Z,18.88
2023-02-24T02:54:28.492Z,20.85
2023-02-24T02:57:01.565Z,22.33
2023-02-24T02:59:32.831Z,21.60
2023-02-24T03:02:11.737Z,23.40
2023-02-24T03:04:46.533Z,22.40
2023-02-24T03:07:17.725Z,24.23
2023-02-24T03:09:50.428Z,23.92
2023-02-24T03:12:23.347Z,23.17
2023-02-24T03:14:57.659Z,21.00
2023-02-24T03:17:28.951Z,22.73
2023-02-24T03:20:15.172Z,20.50
2023-02-24T03:22:47.103Z,21.30
2023-02-24T03:25:16.845Z,21.73
2023-02-24T03:27:52.285Z,22.85
2023-02-24T03:30:23.243Z,23.92
2023-02-24T03:32:56.778Z,25.90
2023-02-24T03:35:32.104Z,25.05
2023-02-24T03:38:03.023Z,25.60
2023-02-24T03:40:35.727Z,25.10
2023-02-24T03:43:09.083Z,24.08
2023-02-24T03:45:39.095Z,25.65
2023-02-24T03:48:09.211Z,24.58
2023-02-24T03:50:40.745Z,24.92
2023-02-24T03:53:32.000Z,25.30
2023-02-24T03:56:11.002Z,23.02
2023-02-24T03:58:57.093Z,18.08
2023-02-24T04:01:36.235Z,24.13
2023-02-24T04:04:13.250Z,23.05
2023-02-24T04:06:57.977Z,22.77
2023-02-24T04:09:33.352Z,23.77
2023-02-24T04:12:17.027Z,25.33
2023-02-24T04:14:52.798Z,20.60
2023-02-24T04:17:23.876Z,24.95
2023-02-24T04:19:57.279Z,24.80
2023-02-24T04:22:29.082Z,22.73
2023-02-24T04:25:00.643Z,25.90
2023-02-24T04:27:29.726Z,23.75
2023-02-24T04:30:13.215Z,27.17
2023-02-24T04:32:44.117Z,24.40
2023-02-24T04:35:14.917Z,20.92
2023-02-24T04:37:47.513Z,14.27
2023-02-24T04:40:22.011Z,20.15
2023-02-24T04:42:51.884Z,17.52
2023-02-24T04:45:22.233Z,16.35
2023-02-24T04:47:51.246Z,20.13
2023-02-24T04:50:23.797Z,15.20
2023-02-24T04:52:54.721Z,15.18
2023-02-24T04:55:24.732Z,20.73
2023-02-24T04:57:54.647Z,18.63
2023-02-24T05:00:26.362Z,12.85
2023-02-24T05:02:56.385Z,11.18
2023-02-24T05:05:27.619Z,25.70
2023-02-24T05:08:02.823Z,7.65
2023-02-24T05:10:33.351Z,16.92
2023-02-24T05:13:02.549Z,20.90
2023-02-24T05:15:32.554Z,16.83
2023-02-24T05:18:01.018Z,17.77
2023-02-24T05:20:46.853Z,18.80
2023-02-24T05:23:17.159Z,15.57
2023-02-24T05:25:45.447Z,17.50
2023-02-24T05:28:13.128Z,19.90
2023-02-24T05:30:40.868Z,15.10
2023-02-24T05:33:08.975Z,12.27
2023-02-24T05:35:38.612Z,13.35
2023-02-24T05:38:08.196Z,15.88
2023-02-24T05:40:45.529Z,16.67
2023-02-24T05:43:15.809Z,17.25
2023-02-24T05:45:43.569Z,19.08
2023-02-24T05:48:14.931Z,14.60
2023-02-24T05:50:46.076Z,17.63
2023-02-24T05:53:14.234Z,19.75
2023-02-24T05:55:43.790Z,18.42
2023-02-24T05:58:11.558Z,12.50
2023-02-24T06:00:39.640Z,16.27
2023-02-24T06:03:10.449Z,16.10
2023-02-24T06:05:39.805Z,8.55
2023-02-24T06:08:11.665Z,13.00
2023-02-24T06:10:41.502Z,13.07
2023-02-24T06:13:10.607Z,19.23
2023-02-24T06:15:38.486Z,10.70
2023-02-24T06:18:07.207Z,21.98
2023-02-24T06:20:35.059Z,13.52
2023-02-24T06:23:05.283Z,11.70
2023-02-24T06:25:34.053Z,12.43
2023-02-24T06:28:01.792Z,15.15
2023-02-24T06:30:32.788Z,17.35
2023-02-24T06:33:00.827Z,16.08
2023-02-24T06:35:28.665Z,11.45
2023-02-24T06:37:56.725Z,15.50
2023-02-24T06:40:24.622Z,18.95
2023-02-24T06:42:54.931Z,14.30
2023-02-24T06:45:24.178Z,8.40
2023-02-24T06:47:53.489Z,15.50
2023-02-24T06:50:21.942Z,17.33
2023-02-24T06:52:50.465Z,19.05
2023-02-24T06:55:27.582Z,12.95
2023-02-24T06:57:57.962Z,8.00
2023-02-24T07:00:37.440Z,11.95
2023-02-24T07:03:15.736Z,14.02
2023-02-24T07:05:50.113Z,13.65
2023-02-24T07:08:19.687Z,15.35
2023-02-24T07:10:53.300Z,15.77
2023-02-24T07:13:21.641Z,12.18
2023-02-24T07:15:50.146Z,9.10
2023-02-24T07:18:20.039Z,16.80
2023-02-24T07:20:48.030Z,15.48
2023-02-24T07:23:16.771Z,15.98
2023-02-24T07:25:46.406Z,11.77
2023-02-24T07:28:14.871Z,16.23
2023-02-24T07:30:43.229Z,14.23
2023-02-24T07:33:11.875Z,16.15
2023-02-24T07:35:42.440Z,15.77
2023-02-24T07:38:10.249Z,13.50
2023-02-24T07:40:41.023Z,18.67
2023-02-24T07:43:08.856Z,15.98
2023-02-24T07:45:36.629Z,6.82
2023-02-24T07:48:04.655Z,13.35
2023-02-24T07:50:32.884Z,12.57
2023-02-24T07:53:04.922Z,16.98
2023-02-24T07:55:35.929Z,13.38
2023-02-24T07:58:05.770Z,13.25
2023-02-24T08:00:50.040Z,11.00
2023-02-24T08:03:17.898Z,16.33
2023-02-24T08:05:45.743Z,20.80
2023-02-24T08:08:20.846Z,19.08
2023-02-24T08:10:48.631Z,16.00
2023-02-24T08:13:19.038Z,12.00
2023-02-24T08:15:56.522Z,18.30
2023-02-24T08:18:24.357Z,15.02
2023-02-24T08:20:53.471Z,18.25
2023-02-24T08:23:23.540Z,20.45
2023-02-24T08:25:51.462Z,12.55
2023-02-24T08:28:19.282Z,10.27
2023-02-24T08:30:47.344Z,20.65
2023-02-24T08:33:20.228Z,22.85
2023-02-24T08:35:52.796Z,19.38
2023-02-24T08:38:26.436Z,17.25
2023-02-24T08:40:55.853Z,12.75
2023-02-24T08:43:32.992Z,14.82
2023-02-24T08:46:04.627Z,14.90
2023-02-24T08:48:39.015Z,18.48
2023-02-24T08:51:11.261Z,10.32
2023-02-24T08:53:41.319Z,13.80
2023-02-24T08:56:11.770Z,18.65
2023-02-24T08:58:47.516Z,16.15
2023-02-24T09:01:20.207Z,18.45
2023-02-24T09:03:51.114Z,18.73
2023-02-24T09:06:25.376Z,14.55
2023-02-24T09:09:10.821Z,16.52
2023-02-24T09:11:43.887Z,19.38
2023-02-24T09:14:27.452Z,20.73
2023-02-24T09:17:03.487Z,20.83
2023-02-24T09:20:02.245Z,19.98
2023-02-24T09:22:32.422Z,18.90
2023-02-24T09:25:20.055Z,13.55
2023-02-24T09:27:52.247Z,13.23
2023-02-24T09:30:37.010Z,19.50
2023-02-24T09:35:47.902Z,19.13
2023-02-24T09:38:17.654Z,12.98
2023-02-24T09:40:52.450Z,19.17
2023-02-24T09:43:24.421Z,18.75
2023-02-24T09:45:59.202Z,19.35
2023-02-24T09:48:43.779Z,21.02
2023-02-24T09:51:22.730Z,9.95
2023-02-24T09:53:56.851Z,12.90
2023-02-24T09:56:32.683Z,19.05
2023-02-24T09:59:13.097Z,18.30
2023-02-24T10:01:46.884Z,19.50
2023-02-24T10:04:27.472Z,14.90
2023-02-24T10:07:03.049Z,7.40
2023-02-24T10:09:35.449Z,11.02
2023-02-24T10:12:18.048Z,14.90
2023-02-24T10:14:52.917Z,17.52
2023-02-24T10:17:30.722Z,17.67
2023-02-24T10:20:13.647Z,14.43
2023-02-24T10:22:51.326Z,12.65
2023-02-24T10:25:41.111Z,16.08
2023-02-24T10:28:23.029Z,19.95
2023-02-24T10:31:03.994Z,11.93
2023-02-24T10:33:38.912Z,18.88
2023-02-24T10:38:40.805Z,14.40
2023-02-24T10:41:10.782Z,14.48
2023-02-24T10:43:46.316Z,13.60
2023-02-24T10:46:40.050Z,14.43
2023-02-24T10:49:16.529Z,13.98
2023-02-24T10:51:49.708Z,13.90
2023-02-24T10:54:44.858Z,17.13
2023-02-24T10:57:23.105Z,15.32
2023-02-24T11:00:13.129Z,12.52
2023-02-24T11:03:06.989Z,19.35
2023-02-24T11:05:44.466Z,18.92
2023-02-24T11:08:36.603Z,16.17
2023-02-24T11:11:20.171Z,16.00
2023-02-24T11:14:09.896Z,13.98
2023-02-24T11:17:07.917Z,6.85
2023-02-24T11:19:42.929Z,15.05
2023-02-24T11:22:14.570Z,11.13
2023-02-24T11:24:44.617Z,17.27
2023-02-24T11:27:14.941Z,14.25
2023-02-24T11:30:06.116Z,13.60
2023-02-24T11:32:47.756Z,10.80
2023-02-24T11:35:22.197Z,16.42
2023-02-24T11:40:27.507Z,14.27
2023-02-24T11:43:01.025Z,16.70
2023-02-24T11:45:33.972Z,9.13
2023-02-24T11:48:07.274Z,15.10
2023-02-24T11:50:43.895Z,17.55
2023-02-24T11:53:24.340Z,13.32
2023-02-24T11:55:59.785Z,16.02
2023-02-24T11:58:36.590Z,12.30
2023-02-24T12:01:11.164Z,13.85
2023-02-24T12:03:50.418Z,11.05
2023-02-24T12:06:27.844Z,8.60
2023-02-24T12:09:01.913Z,13.48
2023-02-24T12:11:41.630Z,14.95
2023-02-24T12:14:21.389Z,14.30
2023-02-24T12:16:56.294Z,14.90
2023-02-24T12:19:33.172Z,13.23
2023-02-24T12:22:06.539Z,11.65
2023-02-24T12:24:36.815Z,9.75
2023-02-24T12:27:16.333Z,15.48
2023-02-24T12:29:57.190Z,7.88
2023-02-24T12:32:31.911Z,13.48
2023-02-24T12:35:12.067Z,13.13
2023-02-24T12:37:53.538Z,16.50
2023-02-24T12:40:34.068Z,13.43
2023-02-24T12:43:14.623Z,12.25
2023-02-24T12:45:52.454Z,10.73
2023-02-24T12:48:38.393Z,9.75
2023-02-24T12:53:44.841Z,10.20
2023-02-24T12:56:19.566Z,13.63
2023-02-24T12:58:51.432Z,12.40
2023-02-24T13:01:25.748Z,11.77
2023-02-24T13:04:24.011Z,12.88
2023-02-24T13:07:09.872Z,10.95
2023-02-24T13:09:47.084Z,9.00
2023-02-24T13:12:20.247Z,10.80
2023-02-24T13:14:49.519Z,13.88
2023-02-24T13:17:20.248Z,12.40
2023-02-24T13:19:49.350Z,12.57
2023-02-24T13:22:28.551Z,13.10
2023-02-24T13:25:00.213Z,8.02
2023-02-24T13:27:33.200Z,15.32
2023-02-24T13:30:05.727Z,14.13
2023-02-24T13:32:36.174Z,9.65
2023-02-24T13:35:07.441Z,13.45
2023-02-24T13:37:39.503Z,18.75
2023-02-24T13:40:26.555Z,11.88
2023-02-24T13:43:00.377Z,5.10
2023-02-24T13:45:29.939Z,10.65
2023-02-24T13:48:39.142Z,7.55
2023-02-24T13:51:23.910Z,12.63
2023-02-24T13:54:10.453Z,11.88
2023-02-24T13:56:44.567Z,11.38
2023-02-24T13:59:37.712Z,11.13
2023-02-24T14:02:15.645Z,11.00
2023-02-24T14:04:48.669Z,15.85
2023-02-24T14:07:22.397Z,10.10
2023-02-24T14:09:55.027Z,8.93
2023-02-24T14:12:26.735Z,12.57
2023-02-24T14:14:55.624Z,11.27
2023-02-24T14:17:28.512Z,8.27
2023-02-24T14:20:08.929Z,11.10
2023-02-24T14:22:44.584Z,15.00
2023-02-24T14:25:15.580Z,17.88
2023-02-24T14:27:45.263Z,14.40
2023-02-24T14:30:24.582Z,12.90
2023-02-24T14:32:52.697Z,7.07
2023-02-24T14:35:27.413Z,9.70
2023-02-24T14:37:55.624Z,9.15
2023-02-24T14:40:25.699Z,7.53
2023-02-24T14:42:55.603Z,8.98
2023-02-24T14:45:26.115Z,12.80
2023-02-24T14:47:54.652Z,7.85
2023-02-24T14:50:26.617Z,10.50
2023-02-24T14:53:00.096Z,12.45
2023-02-24T14:55:32.391Z,9.13
2023-02-24T14:58:04.078Z,9.90
2023-02-24T15:00:35.404Z,10.90
2023-02-24T15:03:14.370Z,10.25
2023-02-24T15:05:45.861Z,6.15
2023-02-24T15:08:26.168Z,11.18
2023-02-24T15:10:55.634Z,11.18
2023-02-24T15:13:36.266Z,11.93
2023-02-24T15:16:13.505Z,9.40
2023-02-24T15:18:42.339Z,9.45
2023-02-24T15:21:21.401Z,13.48
2023-02-24T15:23:49.456Z,8.85
2023-02-24T15:26:30.685Z,14.43
2023-02-24T15:29:00.741Z,11.27
2023-02-24T15:31:29.667Z,13.40
2023-02-24T15:34:00.341Z,11.25
2023-02-24T15:36:32.251Z,13.60
2023-02-24T15:39:03.927Z,13.40
2023-02-24T15:41:41.932Z,13.35
2023-02-24T15:44:25.917Z,16.23
2023-02-24T15:46:54.050Z,10.30
2023-02-24T15:49:21.772Z,14.57
2023-02-24T15:51:53.537Z,8.70
2023-02-24T15:54:29.192Z,8.18
2023-02-24T15:57:00.421Z,11.25
2023-02-24T15:59:29.672Z,14.30
2023-02-24T16:01:57.382Z,11.63
2023-02-24T16:04:26.710Z,11.07
2023-02-24T16:06:56.621Z,11.55
2023-02-24T16:09:31.983Z,6.80
2023-02-24T16:12:02.556Z,9.93
2023-02-24T16:14:30.434Z,9.80
2023-02-24T16:16:59.153Z,11.00
2023-02-24T16:19:27.469Z,11.40
2023-02-24T16:21:55.460Z,10.98
2023-02-24T16:24:23.234Z,13.63
2023-02-24T16:26:51.158Z,6.05
2023-02-24T16:29:20.307Z,9.90
2023-02-24T16:31:48.435Z,8.80
2023-02-24T16:34:16.852Z,10.38
2023-02-24T16:36:44.936Z,11.43
2023-02-24T16:39:13.981Z,10.73
2023-02-24T16:41:42.124Z,12.73
2023-02-24T16:44:10.673Z,10.90
2023-02-24T16:46:42.094Z,9.50
2023-02-24T16:49:14.492Z,12.60
2023-02-24T16:51:42.328Z,12.65
2023-02-24T16:54:10.509Z,13.48
2023-02-24T16:56:39.096Z,11.38
2023-02-24T16:59:06.776Z,7.10
2023-02-24T17:01:34.820Z,7.80
2023-02-24T17:04:08.042Z,9.50
2023-02-24T17:06:35.856Z,8.57
2023-02-24T17:09:03.697Z,13.18
2023-02-24T17:11:31.440Z,9.52
2023-02-24T17:13:59.306Z,14.30
2023-02-24T17:16:27.182Z,9.27
2023-02-24T17:18:55.002Z,9.63
2023-02-24T17:21:24.773Z,10.40
2023-02-24T17:23:52.564Z,13.32
2023-02-24T17:26:20.568Z,12.43
2023-02-24T17:28:48.446Z,10.45
2023-02-24T17:31:16.316Z,9.68
2023-02-24T17:33:44.152Z,15.00
2023-02-24T17:36:11.995Z,12.98
2023-02-24T17:38:41.154Z,14.50
2023-02-24T17:41:08.965Z,13.95
2023-02-24T17:43:36.775Z,10.13
2023-02-24T17:46:06.943Z,13.98
2023-02-24T17:48:35.189Z,11.93
2023-02-24T17:51:02.881Z,15.82
2023-02-24T17:53:31.211Z,12.13
2023-02-24T17:56:04.974Z,12.93
2023-02-24T17:58:33.316Z,11.23
2023-02-24T18:01:02.325Z,8.80
2023-02-24T18:03:30.517Z,11.65
2023-02-24T18:06:03.034Z,15.13
2023-02-24T18:08:32.744Z,10.57
2023-02-24T18:11:00.944Z,13.20
2023-02-24T18:13:31.453Z,8.43
2023-02-24T18:15:59.744Z,9.43
2023-02-24T18:18:31.312Z,7.78
2023-02-24T18:21:02.716Z,9.18
2023-02-24T18:23:30.904Z,8.27
2023-02-24T18:26:03.019Z,6.28
2023-02-24T18:28:32.701Z,8.90
2023-02-24T18:31:03.073Z,9.95
2023-02-24T18:33:31.108Z,11.02
2023-02-24T18:35:59.842Z,11.85
2023-02-24T18:38:27.938Z,10.38
2023-02-24T18:41:00.230Z,11.82
2023-02-24T18:43:28.095Z,8.63
2023-02-24T18:46:02.608Z,9.90
2023-02-24T18:48:31.539Z,11.88
2023-02-24T18:51:00.589Z,13.75
2023-02-24T18:53:36.765Z,6.28
2023-02-24T18:56:07.786Z,8.93
2023-02-24T18:58:37.034Z,8.25
2023-02-24T19:01:13.565Z,9.30
2023-02-24T19:03:41.660Z,9.52
2023-02-24T19:06:09.751Z,7.03
2023-02-24T19:08:40.507Z,8.30
2023-02-24T19:11:10.136Z,11.00
2023-02-24T19:13:37.951Z,10.20
2023-02-24T19:16:07.147Z,9.13
2023-02-24T19:18:36.853Z,9.25
2023-02-24T19:21:06.571Z,6.93
2023-02-24T19:23:34.670Z,8.90
2023-02-24T19:26:02.659Z,12.10
2023-02-24T19:28:30.501Z,8.55
2023-02-24T19:30:59.168Z,11.20
2023-02-24T19:33:26.932Z,9.23
2023-02-24T19:35:59.412Z,13.48
2023-02-24T19:38:28.420Z,9.95
2023-02-24T19:40:59.006Z,7.32
2023-02-24T19:43:27.039Z,10.75
2023-02-24T19:45:54.877Z,10.40
2023-02-24T19:48:22.679Z,10.95
2023-02-24T19:50:50.431Z,8.65
2023-02-24T19:53:19.599Z,9.93
2023-02-24T19:55:50.401Z,10.52
2023-02-24T19:58:18.446Z,8.45
2023-02-24T20:00:48.092Z,11.57
2023-02-24T20:03:16.038Z,10.95
2023-02-24T20:05:43.879Z,8.75
2023-02-24T20:08:11.690Z,10.32
2023-02-24T20:10:40.789Z,12.10
2023-02-24T20:13:08.541Z,9.50
2023-02-24T20:15:36.563Z,11.13
2023-02-24T20:18:08.756Z,9.93
2023-02-24T20:20:37.165Z,10.77
2023-02-24T20:23:05.664Z,11.73
2023-02-24T20:25:33.600Z,8.35
2023-02-24T20:28:02.809Z,9.77
2023-02-24T20:30:30.638Z,7.93
2023-02-24T20:32:59.542Z,8.32
2023-02-24T20:35:28.359Z,12.35
2023-02-24T20:37:56.253Z,12.23
2023-02-24T20:40:23.956Z,8.02
2023-02-24T20:42:51.692Z,4.13
2023-02-24T20:45:20.736Z,3.42
2023-02-24T20:47:48.470Z,3.05
2023-02-24T20:50:16.832Z,2.78
2023-02-24T20:52:44.568Z,2.95
2023-02-24T20:55:12.389Z,2.47
2023-02-24T20:57:40.143Z,2.53
2023-02-24T21:00:09.029Z,27.27
2023-02-24T21:02:41.065Z,1.80
2023-02-24T21:05:09.923Z,1.02
2023-02-24T21:07:38.118Z,1.58
2023-02-24T21:10:07.863Z,1.50
2023-02-24T21:12:36.529Z,1.90
2023-02-24T21:15:04.565Z,2.35
2023-02-24T21:17:34.273Z,3.05
2023-02-24T21:20:03.461Z,2.65
2023-02-24T21:22:31.859Z,2.83
2023-02-24T21:25:00.064Z,2.63
2023-02-24T21:27:27.810Z,3.03
2023-02-24T21:29:55.553Z,3.33
2023-02-24T21:32:23.458Z,3.28
2023-02-24T21:34:51.306Z,3.20
2023-02-24T21:37:20.411Z,4.28
2023-02-24T21:39:49.172Z,4.13
2023-02-24T21:42:16.962Z,2.95
2023-02-24T21:44:44.794Z,3.78
2023-02-24T21:47:12.820Z,7.53
2023-02-24T21:49:40.939Z,19.85
2023-02-24T21:52:11.326Z,2.67
2023-02-24T21:54:42.231Z,4.85
2023-02-24T21:57:10.016Z,3.50
2023-02-24T21:59:38.116Z,3.13
2023-02-24T22:02:05.978Z,3.53
2023-02-24T22:04:33.815Z,3.40
2023-02-24T22:07:01.438Z,4.15
2023-02-24T22:09:30.690Z,4.20
2023-02-24T22:11:59.772Z,4.22
2023-02-24T22:14:27.556Z,3.20
2023-02-24T22:16:55.283Z,4.20
2023-02-24T22:19:23.040Z,3.75
2023-02-24T22:21:51.059Z,4.03
2023-02-24T22:24:19.141Z,3.03
2023-02-24T22:26:46.961Z,3.17
2023-02-24T22:29:16.011Z,3.60
2023-02-24T22:31:47.640Z,4.05
2023-02-24T22:34:16.142Z,3.25
2023-02-24T22:36:44.534Z,3.70
2023-02-24T22:39:16.386Z,4.03
2023-02-24T22:41:45.725Z,3.33
2023-02-24T22:44:14.308Z,4.65
2023-02-24T22:46:43.538Z,2.30
2023-02-24T22:49:12.289Z,3.47
2023-02-24T22:51:40.159Z,3.38
2023-02-24T22:54:08.252Z,3.13
2023-02-24T22:56:37.758Z,3.45
2023-02-24T22:59:05.603Z,4.38
2023-02-24T23:01:35.910Z,4.20
2023-02-24T23:04:07.009Z,3.63
2023-02-24T23:06:36.624Z,3.45
2023-02-24T23:09:06.597Z,3.88
2023-02-24T23:11:37.517Z,2.83
2023-02-24T23:14:06.992Z,2.83
2023-02-24T23:16:35.887Z,4.53
2023-02-24T23:19:07.515Z,2.38
2023-02-24T23:21:38.806Z,4.45
2023-02-24T23:24:08.903Z,4.82
2023-02-24T23:26:40.440Z,2.53
2023-02-24T23:29:10.251Z,6.32
2023-02-24T23:31:39.918Z,9.63
2023-02-24T23:34:10.495Z,10.00
2023-02-24T23:36:41.066Z,4.25
2023-02-24T23:39:09.375Z,4.28
2023-02-24T23:41:37.881Z,3.75
2023-02-24T23:44:06.560Z,3.25
2023-02-24T23:46:35.538Z,4.25
2023-02-24T23:49:03.426Z,3.67
2023-02-24T23:51:47.003Z,4.55
2023-02-24T23:56:43.797Z,3.88
2023-02-24T23:59:11.861Z,3.88
